Time;durP1;ratioP1;P1;durP2;ratioP2;P2;SDS_P1;SDS_P2;PMS_P1;PMS_P2;Temp;Humidity;BMP_temperature;BMP_pressure;BME280_temperature;BME280_humidity;BME280_pressure;Samples;Min_cycle;Max_cycle;Signal;HPM_P1;HPM_P2
2022/02/03 00:01:27;;;;;;;6.55;5.47;;;;;15.60;101871.00;;;;5090112;28;20281;-80
2022/02/03 00:04:03;;;;;;;8.90;6.03;;;;;15.60;101865.00;;;;5088505;28;20287;-80
2022/02/03 00:06:45;;;;;;;7.38;5.28;;;;;15.60;101871.00;;;;5069719;28;20256;-80
2022/02/03 00:09:50;;;;;;;12.20;6.03;;;;;15.60;101872.00;;;;5088698;28;20694;-80
2022/02/03 00:23:58;;;;;;;8.63;5.80;;;;;15.60;101849.00;;;;5089846;28;20339;-80
2022/02/03 00:26:19;;;;;;;7.80;5.10;;;;;15.60;101856.00;;;;5085726;28;20214;-80
2022/02/03 00:28:48;;;;;;;8.77;5.88;;;;;15.60;101849.00;;;;5089106;28;20218;-80
2022/02/03 00:31:34;;;;;;;8.15;5.97;;;;;15.60;101853.00;;;;5089013;28;20236;-80
2022/02/03 00:34:08;;;;;;;8.02;5.40;;;;;15.60;101850.00;;;;5087838;28;20198;-80
2022/02/03 00:37:03;;;;;;;5.95;4.75;;;;;15.60;101845.00;;;;5086723;28;20246;-80
2022/02/03 00:50:36;;;;;;;9.90;5.22;;;;;15.60;101835.00;;;;5077470;28;20250;-80
2022/02/03 00:53:07;;;;;;;8.80;4.95;;;;;15.60;101834.00;;;;5089148;28;20198;-81
2022/02/03 00:55:38;;;;;;;9.48;5.63;;;;;15.50;101831.00;;;;5077949;28;20214;-80
2022/02/03 00:58:08;;;;;;;10.20;6.18;;;;;15.60;101824.00;;;;5088892;28;20591;-80
2022/02/03 01:00:36;;;;;;;8.02;5.63;;;;;15.60;101826.00;;;;5088012;28;20198;-80
2022/02/03 01:03:09;;;;;;;8.88;5.55;;;;;15.50;101836.00;;;;5088257;28;20206;-81
2022/02/03 01:05:38;;;;;;;6.68;5.55;;;;;15.60;101831.00;;;;5087365;28;20194;-80
2022/02/03 01:08:16;;;;;;;8.15;5.57;;;;;15.60;101832.00;;;;5087418;28;20201;-80
2022/02/03 01:10:50;;;;;;;8.45;5.10;;;;;15.50;101829.00;;;;5086275;28;20251;-80
2022/02/03 01:13:35;;;;;;;8.90;5.22;;;;;15.50;101834.00;;;;5087215;28;20281;-80
2022/02/03 01:16:05;;;;;;;6.63;5.07;;;;;15.50;101842.00;;;;5088137;28;20218;-79
2022/02/03 01:19:00;;;;;;;9.23;5.93;;;;;15.50;101829.00;;;;5085809;28;20811;-80
2022/02/03 01:21:44;;;;;;;6.72;5.40;;;;;15.50;101822.00;;;;5085289;28;20203;-80
2022/02/03 01:36:51;;;;;;;8.20;5.78;;;;;15.40;101822.00;;;;5075562;28;20237;-80
2022/02/03 01:43:46;;;;;;;9.07;6.70;;;;;15.40;101809.00;;;;5087543;28;20197;-80
2022/02/03 01:46:26;;;;;;;9.02;7.32;;;;;15.40;101804.00;;;;5095846;28;20193;-79
2022/02/03 01:49:10;;;;;;;10.52;7.65;;;;;15.40;101800.00;;;;5095899;28;20653;-80
2022/02/03 01:51:54;;;;;;;9.80;7.15;;;;;15.40;101803.00;;;;5095310;28;20198;-80
2022/02/03 01:54:27;;;;;;;10.52;7.55;;;;;15.40;101798.00;;;;5098015;28;20601;-80
2022/02/03 01:57:08;;;;;;;9.07;6.93;;;;;15.40;101795.00;;;;5092201;28;20312;-80
2022/02/03 01:59:37;;;;;;;12.80;8.27;;;;;15.40;101778.00;;;;5092209;28;20282;-80
2022/02/03 02:02:05;;;;;;;9.57;7.60;;;;;15.40;101784.00;;;;5092269;28;20277;-80
2022/02/03 02:04:55;;;;;;;13.13;9.13;;;;;15.30;101779.00;;;;5091871;28;20550;-80
2022/02/03 02:07:30;;;;;;;16.13;9.40;;;;;15.40;101774.00;;;;5086601;28;20737;-80
2022/02/03 02:10:20;;;;;;;11.35;8.43;;;;;15.30;101767.00;;;;5091157;28;20197;-80
2022/02/03 02:13:07;;;;;;;13.10;8.88;;;;;15.30;101758.00;;;;5091561;28;20297;-80
2022/02/03 02:16:03;;;;;;;13.02;9.00;;;;;15.40;101760.00;;;;5089496;28;20236;-79
2022/02/03 02:19:08;;;;;;;12.50;9.18;;;;;15.30;101757.00;;;;5090406;28;20201;-80
2022/02/03 02:38:56;;;;;;;16.33;11.40;;;;;15.20;101763.00;;;;5084978;28;20206;-80
2022/02/03 02:44:33;;;;;;;14.93;10.45;;;;;15.10;101760.00;;;;5076333;28;20201;-80
2022/02/03 02:47:01;;;;;;;15.80;10.90;;;;;15.20;101754.00;;;;5091209;28;20567;-80
2022/02/03 02:49:43;;;;;;;18.35;11.00;;;;;15.10;101748.00;;;;5096299;28;20202;-80
2022/02/03 02:52:18;;;;;;;17.58;9.90;;;;;15.10;101737.00;;;;5077125;28;20187;-80
2022/02/03 02:54:58;;;;;;;15.23;9.88;;;;;15.10;101727.00;;;;5091020;28;20536;-80
2022/02/03 02:57:51;;;;;;;15.93;9.98;;;;;15.10;101719.00;;;;5088261;28;20195;-80
2022/02/03 03:00:43;;;;;;;15.73;10.23;;;;;15.10;101719.00;;;;5081099;28;20206;-80
2022/02/03 03:03:51;;;;;;;13.38;9.77;;;;;15.00;101713.00;;;;5090231;28;20640;-80
2022/02/03 03:31:50;;;;;;;9.80;7.00;;;;;14.90;101664.00;;;;5089648;28;20233;-80
2022/02/03 03:34:37;;;;;;;10.05;7.00;;;;;14.90;101657.00;;;;5089962;28;20221;-80
2022/02/03 03:37:09;;;;;;;10.90;6.70;;;;;14.90;101655.00;;;;5089038;28;20229;-80
2022/02/03 03:39:45;;;;;;;8.80;5.78;;;;;14.90;101659.00;;;;5092853;28;20250;-79
2022/02/03 03:42:14;;;;;;;8.48;6.45;;;;;14.90;101645.00;;;;5089786;28;20266;-79
2022/02/03 03:44:43;;;;;;;8.80;6.32;;;;;14.90;101635.00;;;;5089647;28;20198;-79
2022/02/03 03:47:15;;;;;;;8.52;6.38;;;;;14.90;101639.00;;;;5090757;28;20210;-80
2022/02/03 03:49:47;;;;;;;9.98;6.97;;;;;14.90;101638.00;;;;5089576;28;20206;-79
2022/02/03 03:52:19;;;;;;;14.02;6.80;;;;;14.90;101637.00;;;;5089928;28;20190;-80
2022/02/03 03:54:55;;;;;;;8.27;5.35;;;;;14.90;101645.00;;;;5089318;28;20205;-80
2022/02/03 03:57:42;;;;;;;9.23;6.30;;;;;14.90;101647.00;;;;5109061;28;20206;-81
2022/02/03 04:00:39;;;;;;;8.75;6.53;;;;;14.90;101643.00;;;;5089251;28;20201;-80
2022/02/03 04:29:42;;;;;;;5.97;4.32;;;;;14.80;101608.00;;;;5079797;28;20258;-80
2022/02/03 04:32:44;;;;;;;6.18;4.25;;;;;14.80;101604.00;;;;5068580;28;20676;-80
2022/02/03 04:36:20;;;;;;;6.38;4.10;;;;;14.80;101602.00;;;;5075545;28;20506;-80
2022/02/03 04:38:43;;;;;;;4.60;3.67;;;;;14.80;101602.00;;;;5087440;28;20204;-80
2022/02/03 04:41:44;;;;;;;9.85;4.07;;;;;14.80;101599.00;;;;5087760;28;20281;-80
2022/02/03 04:44:51;;;;;;;5.38;4.05;;;;;14.80;101592.00;;;;5077452;28;20197;-79
2022/02/03 04:54:11;;;;;;;4.80;3.05;;;;;14.70;101588.00;;;;5080010;28;20605;-80
2022/02/03 04:57:06;;;;;;;5.18;2.88;;;;;14.70;101577.00;;;;5077910;28;20731;-80
2022/02/03 05:00:21;;;;;;;7.68;2.92;;;;;14.70;101572.00;;;;5095739;28;20409;-80
2022/02/03 05:03:23;;;;;;;4.63;2.80;;;;;14.70;101573.00;;;;5068050;28;20199;-80
2022/02/03 05:06:06;;;;;;;3.95;2.70;;;;;14.70;101562.00;;;;5080569;28;20206;-80
2022/02/03 05:09:08;;;;;;;4.57;2.80;;;;;14.70;101573.00;;;;5088248;28;20243;-80
2022/02/03 05:12:04;;;;;;;4.95;2.75;;;;;14.70;101551.00;;;;5088001;28;20189;-80
2022/02/03 05:18:01;;;;;;;4.90;2.80;;;;;14.70;101560.00;;;;5090629;28;20605;-80
2022/02/03 05:33:31;;;;;;;3.45;2.22;;;;;14.60;101543.00;;;;5088754;28;20202;-79
2022/02/03 05:42:27;;;;;;;5.03;3.03;;;;;14.60;101530.00;;;;5026337;28;20807;-80
2022/02/03 05:45:28;;;;;;;3.67;2.28;;;;;14.60;101536.00;;;;5081803;28;20273;-80
2022/02/03 05:51:07;;;;;;;5.05;2.45;;;;;14.70;101525.00;;;;5085426;28;20241;-80
2022/02/03 06:02:33;;;;;;;4.07;2.95;;;;;14.70;101515.00;;;;5083113;28;20615;-80
2022/02/03 06:05:05;;;;;;;3.92;2.50;;;;;14.70;101515.00;;;;5086653;28;20573;-80
2022/02/03 06:07:52;;;;;;;4.55;2.60;;;;;14.70;101514.00;;;;5087124;28;20213;-80
2022/02/03 06:13:12;;;;;;;8.45;2.70;;;;;14.70;101503.00;;;;5087648;28;20209;-79
2022/02/03 06:15:45;;;;;;;4.30;2.78;;;;;14.70;101499.00;;;;5084077;28;20190;-79
2022/02/03 06:24:07;;;;;;;3.22;2.25;;;;;14.70;101478.00;;;;5087294;28;20198;-79
2022/02/03 06:29:25;;;;;;;3.08;2.30;;;;;14.70;101480.00;;;;5087254;28;20766;-80
2022/02/03 06:31:53;;;;;;;4.25;2.38;;;;;14.70;101473.00;;;;5080200;28;20257;-81
2022/02/03 06:34:22;;;;;;;3.03;2.50;;;;;14.70;101461.00;;;;5090094;28;20198;-81
2022/02/03 06:36:51;;;;;;;2.58;2.03;;;;;14.70;101472.00;;;;5087023;28;20229;-81
2022/02/03 06:39:21;;;;;;;4.40;2.47;;;;;14.70;101472.00;;;;5090599;28;20429;-82
2022/02/03 06:41:52;;;;;;;3.83;2.67;;;;;14.70;101464.00;;;;5089499;28;20197;-82
2022/02/03 06:44:25;;;;;;;4.07;2.53;;;;;14.70;101464.00;;;;5089572;28;20255;-81
2022/02/03 06:46:55;;;;;;;3.00;2.28;;;;;14.70;101466.00;;;;5090660;28;20698;-81
2022/02/03 06:49:33;;;;;;;4.93;2.63;;;;;14.70;101460.00;;;;5089655;28;20187;-82
2022/02/03 06:52:05;;;;;;;3.72;2.17;;;;;14.70;101456.00;;;;5091472;28;20193;-82
2022/02/03 06:54:40;;;;;;;4.68;2.10;;;;;14.70;101445.00;;;;5087668;28;20198;-81
2022/02/03 06:57:12;;;;;;;3.63;2.28;;;;;14.70;101433.00;;;;5090296;28;20213;-82
2022/02/03 06:59:48;;;;;;;3.17;2.20;;;;;14.70;101428.00;;;;5090928;28;20186;-82
2022/02/03 07:02:15;;;;;;;6.05;2.05;;;;;14.70;101431.00;;;;5089248;28;20239;-82
2022/02/03 07:04:45;;;;;;;5.22;2.45;;;;;14.70;101435.00;;;;5085774;28;20203;-82
2022/02/03 07:07:15;;;;;;;4.47;1.95;;;;;14.70;101432.00;;;;5082696;28;20218;-82
2022/02/03 07:09:44;;;;;;;3.55;2.15;;;;;14.70;101431.00;;;;5088141;28;20225;-83
2022/02/03 07:12:11;;;;;;;2.67;1.77;;;;;14.70;101420.00;;;;5089255;28;20229;-82
2022/02/03 07:14:40;;;;;;;1.95;1.73;;;;;14.70;101428.00;;;;5089790;28;20206;-82
2022/02/03 07:17:07;;;;;;;4.07;1.45;;;;;14.70;101434.00;;;;5089845;28;20217;-82
2022/02/03 07:19:40;;;;;;;7.22;2.00;;;;;14.70;101424.00;;;;5075578;28;20198;-81
2022/02/03 07:22:07;;;;;;;4.88;2.20;;;;;14.70;101422.00;;;;5089660;28;20202;-82
2022/02/03 07:24:34;;;;;;;2.45;1.50;;;;;14.60;101420.00;;;;5100494;28;20198;-81
2022/02/03 07:27:01;;;;;;;4.40;1.70;;;;;14.60;101421.00;;;;5091885;28;20607;-81
2022/02/03 07:29:29;;;;;;;2.35;1.65;;;;;14.60;101418.00;;;;5092822;28;20217;-81
2022/02/03 07:31:57;;;;;;;2.92;1.63;;;;;14.60;101422.00;;;;5093373;28;20222;-81
2022/02/03 07:34:24;;;;;;;5.00;1.98;;;;;14.60;101434.00;;;;5110999;28;20202;-81
2022/02/03 07:36:52;;;;;;;3.28;1.80;;;;;14.60;101436.00;;;;5091724;28;20233;-82
2022/02/03 07:39:19;;;;;;;4.25;2.03;;;;;14.60;101425.00;;;;5088852;28;20194;-80
2022/02/03 07:41:46;;;;;;;3.15;2.13;;;;;14.60;101422.00;;;;5087766;28;20206;-80
2022/02/03 07:44:15;;;;;;;4.97;2.85;;;;;14.60;101422.00;;;;5088245;28;20203;-79
2022/02/03 07:46:43;;;;;;;3.53;2.60;;;;;14.60;101415.00;;;;5077230;28;20210;-79
2022/02/03 07:49:12;;;;;;;3.92;2.70;;;;;14.60;101419.00;;;;5087800;28;20202;-78
2022/02/03 07:51:39;;;;;;;5.50;2.40;;;;;14.60;101419.00;;;;5088483;28;20216;-80
2022/02/03 07:54:09;;;;;;;5.85;2.65;;;;;14.60;101414.00;;;;5088169;28;20205;-80
2022/02/03 07:56:36;;;;;;;3.13;2.50;;;;;14.60;101404.00;;;;5085550;28;20699;-82
2022/02/03 07:59:03;;;;;;;4.00;2.53;;;;;14.60;101413.00;;;;5088122;28;20193;-80
2022/02/03 08:01:31;;;;;;;5.13;2.72;;;;;14.60;101417.00;;;;5088199;28;20190;-82
2022/02/03 08:04:01;;;;;;;4.10;3.08;;;;;14.60;101423.00;;;;5088788;28;20226;-81
2022/02/03 08:06:34;;;;;;;5.35;3.10;;;;;14.60;101425.00;;;;5085843;28;20594;-81
2022/02/03 08:09:06;;;;;;;6.07;3.65;;;;;14.60;101426.00;;;;5089288;28;20232;-81
2022/02/03 08:11:38;;;;;;;4.45;3.40;;;;;14.60;101420.00;;;;5089591;28;20288;-81
2022/02/03 08:14:10;;;;;;;5.38;3.33;;;;;14.60;101414.00;;;;5089321;28;20200;-81
2022/02/03 08:16:41;;;;;;;4.88;3.53;;;;;14.60;101408.00;;;;5089075;28;20267;-82
2022/02/03 08:19:13;;;;;;;6.68;3.95;;;;;14.60;101410.00;;;;5089641;28;20701;-82
2022/02/03 08:21:46;;;;;;;9.32;4.18;;;;;14.60;101405.00;;;;5089348;28;20206;-81
2022/02/03 08:24:19;;;;;;;5.70;3.95;;;;;14.60;101399.00;;;;5077815;28;20251;-82
2022/02/03 08:26:54;;;;;;;6.07;3.80;;;;;14.60;101404.00;;;;5086494;28;20821;-82
2022/02/03 08:32:11;;;;;;;7.03;4.07;;;;;14.50;101406.00;;;;5052408;28;20562;-82
2022/02/03 08:34:47;;;;;;;9.07;4.13;;;;;14.50;101395.00;;;;5091709;28;20191;-82
2022/02/03 08:37:17;;;;;;;6.90;4.20;;;;;14.40;101386.00;;;;5086376;28;20237;-82
2022/02/03 08:39:54;;;;;;;9.32;5.22;;;;;14.50;101392.00;;;;5091734;28;20194;-82
2022/02/03 08:42:22;;;;;;;8.05;4.47;;;;;14.50;101386.00;;;;5094892;28;20204;-82
2022/02/03 08:44:50;;;;;;;8.70;4.40;;;;;14.40;101373.00;;;;5095834;28;20190;-82
2022/02/03 08:47:17;;;;;;;7.90;5.15;;;;;14.50;101375.00;;;;5092360;28;20204;-82
2022/02/03 08:49:46;;;;;;;6.13;3.88;;;;;14.40;101371.00;;;;5089004;28;20198;-83
2022/02/03 08:52:18;;;;;;;6.82;5.22;;;;;14.40;101366.00;;;;5090551;28;20224;-82
2022/02/03 08:54:57;;;;;;;7.07;5.35;;;;;14.40;101369.00;;;;5087708;28;20222;-82
2022/02/03 08:57:36;;;;;;;7.68;4.55;;;;;14.40;101368.00;;;;5100906;28;20266;-79
2022/02/03 09:00:20;;;;;;;7.28;5.13;;;;;14.40;101367.00;;;;5100258;28;20193;-81
2022/02/03 09:36:27;;;;;;;6.90;4.78;;;;;14.30;101374.00;;;;5090290;28;20235;-83
2022/02/03 09:39:06;;;;;;;7.93;5.28;;;;;14.30;101377.00;;;;5084044;28;20208;-83
2022/02/03 09:44:55;;;;;;;11.70;6.30;;;;;14.30;101368.00;;;;5071127;28;20210;-83
2022/02/03 09:51:24;;;;;;;7.05;5.00;;;;;14.30;101364.00;;;;5078564;28;20224;-82
2022/02/03 09:56:40;;;;;;;6.07;4.80;;;;;14.30;101355.00;;;;5089767;28;20352;-82
2022/02/03 09:59:11;;;;;;;8.27;6.43;;;;;14.30;101355.00;;;;5086012;28;20212;-84
2022/02/03 10:01:44;;;;;;;9.43;6.07;;;;;14.30;101358.00;;;;5083187;28;20194;-80
2022/02/03 10:04:16;;;;;;;7.68;4.78;;;;;14.30;101358.00;;;;5087388;28;20628;-80
2022/02/03 10:06:54;;;;;;;7.53;5.35;;;;;14.30;101349.00;;;;5084760;28;20222;-80
2022/02/03 10:09:37;;;;;;;7.30;5.95;;;;;14.20;101360.00;;;;5093034;28;20210;-81
2022/02/03 10:12:05;;;;;;;7.90;5.55;;;;;14.30;101352.00;;;;5092440;28;20190;-83
2022/02/03 10:14:35;;;;;;;7.10;5.30;;;;;14.30;101356.00;;;;5091630;28;20194;-80
2022/02/03 10:17:04;;;;;;;8.70;6.00;;;;;14.30;101355.00;;;;5091833;28;20647;-83
2022/02/03 10:19:35;;;;;;;8.57;5.80;;;;;14.30;101346.00;;;;5092221;28;20259;-82
2022/02/03 10:22:11;;;;;;;8.15;5.13;;;;;14.30;101349.00;;;;5091287;28;20716;-82
2022/02/03 10:24:39;;;;;;;8.82;5.25;;;;;14.40;101352.00;;;;5095761;28;20193;-82
2022/02/03 10:27:27;;;;;;;9.15;5.32;;;;;14.30;101351.00;;;;5092216;28;20667;-83
2022/02/03 10:30:19;;;;;;;8.52;5.28;;;;;14.30;101359.00;;;;5088724;28;20202;-83
2022/02/03 10:32:47;;;;;;;9.93;5.75;;;;;14.40;101357.00;;;;5089045;28;20198;-83
2022/02/03 10:35:18;;;;;;;8.98;5.75;;;;;14.40;101350.00;;;;5089707;28;20224;-83
2022/02/03 10:37:49;;;;;;;6.60;5.00;;;;;14.40;101355.00;;;;5088424;28;20301;-84
2022/02/03 10:40:42;;;;;;;7.53;5.03;;;;;14.40;101340.00;;;;5089536;28;20202;-84
2022/02/03 10:43:36;;;;;;;7.28;4.70;;;;;14.50;101345.00;;;;5089190;28;20195;-80
2022/02/03 10:46:37;;;;;;;7.10;5.07;;;;;14.50;101330.00;;;;5089529;28;20198;-81
2022/02/03 10:49:14;;;;;;;5.63;4.18;;;;;14.50;101320.00;;;;5090638;28;20201;-82
2022/02/03 10:52:16;;;;;;;7.32;4.65;;;;;14.50;101326.00;;;;5090123;28;20206;-82
2022/02/03 10:55:08;;;;;;;5.47;4.28;;;;;14.60;101324.00;;;;5082710;28;20193;-83
2022/02/03 10:58:08;;;;;;;6.03;4.10;;;;;14.60;101331.00;;;;5092395;28;20225;-83
2022/02/03 11:00:53;;;;;;;6.35;4.07;;;;;14.50;101316.00;;;;5093096;28;20202;-83
2022/02/03 11:03:32;;;;;;;8.68;4.72;;;;;14.50;101313.00;;;;5089895;28;20198;-83
2022/02/03 11:06:12;;;;;;;7.32;4.00;;;;;14.60;101311.00;;;;5087907;28;20451;-80
2022/02/03 11:08:46;;;;;;;8.57;3.38;;;;;14.60;101303.00;;;;5085069;28;20309;-80
2022/02/03 11:11:18;;;;;;;5.80;3.88;;;;;14.60;101300.00;;;;5093079;28;20247;-80
2022/02/03 11:13:48;;;;;;;8.50;3.95;;;;;14.50;101304.00;;;;5086869;28;20194;-81
2022/02/03 11:16:19;;;;;;;6.82;4.07;;;;;14.50;101295.00;;;;5088322;28;20186;-80
2022/02/03 11:18:48;;;;;;;4.45;3.50;;;;;14.50;101295.00;;;;5093372;28;20224;-81
2022/02/03 11:21:16;;;;;;;6.13;3.80;;;;;14.60;101289.00;;;;5093109;28;20250;-82
2022/02/03 11:23:49;;;;;;;6.63;3.97;;;;;14.60;101276.00;;;;5091688;28;20190;-82
2022/02/03 11:26:26;;;;;;;4.95;3.83;;;;;14.60;101279.00;;;;5087019;28;20205;-81
2022/02/03 11:29:13;;;;;;;5.95;3.80;;;;;14.60;101270.00;;;;5089091;28;20707;-81
2022/02/03 11:37:49;;;;;;;5.65;3.42;;;;;14.70;101255.00;;;;5090120;28;20214;-82
2022/02/03 11:57:33;;;;;;;5.55;3.70;;;;;14.70;101244.00;;;;5089160;28;20683;-82
2022/02/03 12:00:36;;;;;;;5.03;3.58;;;;;14.70;101242.00;;;;5090910;28;20198;-81
2022/02/03 12:17:37;;;;;;;6.07;3.90;;;;;14.80;101212.00;;;;5088363;28;20636;-83
2022/02/03 12:20:24;;;;;;;8.45;4.72;;;;;14.80;101214.00;;;;5085029;28;20301;-83
2022/02/03 12:23:11;;;;;;;5.18;3.75;;;;;14.90;101208.00;;;;5083797;28;20920;-83
2022/02/03 12:25:54;;;;;;;6.10;3.90;;;;;14.80;101203.00;;;;5088820;28;20190;-83
2022/02/03 12:28:33;;;;;;;6.47;4.20;;;;;14.90;101195.00;;;;5085195;28;20210;-81
2022/02/03 12:31:26;;;;;;;6.63;4.20;;;;;14.90;101194.00;;;;5091874;28;20227;-82
2022/02/03 12:39:38;;;;;;;6.65;4.47;;;;;14.90;101175.00;;;;5087116;28;20279;-82
2022/02/03 12:42:18;;;;;;;5.18;3.80;;;;;14.90;101183.00;;;;5087890;28;20574;-82
2022/02/03 12:44:46;;;;;;;8.02;4.25;;;;;14.90;101182.00;;;;5083627;28;20298;-82
2022/02/03 12:47:14;;;;;;;6.60;4.75;;;;;14.90;101182.00;;;;5086298;28;20195;-81
2022/02/03 12:49:42;;;;;;;7.05;4.32;;;;;14.90;101179.00;;;;5087882;28;20207;-82
2022/02/03 12:52:23;;;;;;;6.15;3.85;;;;;14.90;101181.00;;;;5086666;28;20207;-81
2022/02/03 12:54:51;;;;;;;6.32;4.55;;;;;14.90;101179.00;;;;5077826;28;20198;-81
2022/02/03 12:57:29;;;;;;;4.75;3.85;;;;;14.90;101175.00;;;;5087119;28;20198;-81
2022/02/03 13:00:28;;;;;;;5.72;4.18;;;;;14.80;101172.00;;;;5088887;28;20289;-82
2022/02/03 13:02:57;;;;;;;5.78;3.85;;;;;14.90;101174.00;;;;5081270;28;20200;-82
2022/02/03 13:05:27;;;;;;;7.25;3.88;;;;;14.90;101166.00;;;;5079546;28;20721;-82
2022/02/03 13:07:56;;;;;;;8.60;4.03;;;;;14.90;101164.00;;;;5070183;28;20191;-82
2022/02/03 13:10:26;;;;;;;6.45;3.72;;;;;14.90;101164.00;;;;5095594;28;20684;-82
2022/02/03 13:13:04;;;;;;;5.38;3.55;;;;;14.80;101175.00;;;;5086170;28;20199;-81
2022/02/03 13:15:35;;;;;;;5.75;3.78;;;;;14.80;101174.00;;;;5088279;28;20243;-83
2022/02/03 13:18:07;;;;;;;5.32;3.63;;;;;14.80;101171.00;;;;5089674;28;21019;-82
2022/02/03 13:20:43;;;;;;;5.10;3.90;;;;;14.80;101176.00;;;;5093643;28;20190;-83
2022/02/03 13:23:15;;;;;;;6.15;3.33;;;;;14.70;101173.00;;;;5088225;28;20259;-83
2022/02/03 13:25:54;;;;;;;4.35;3.60;;;;;14.70;101168.00;;;;5088061;28;20275;-83
2022/02/03 13:28:34;;;;;;;7.20;4.57;;;;;14.60;101161.00;;;;5087627;28;20275;-83
2022/02/03 13:31:17;;;;;;;7.07;4.05;;;;;14.60;101165.00;;;;5088076;28;20703;-82
2022/02/03 13:33:51;;;;;;;6.15;3.75;;;;;14.60;101167.00;;;;5092766;28;20240;-82
2022/02/03 13:36:24;;;;;;;7.00;4.28;;;;;14.50;101162.00;;;;5089676;28;20225;-83
2022/02/03 13:39:00;;;;;;;4.63;3.30;;;;;14.40;101153.00;;;;5075391;28;20623;-83
2022/02/03 13:41:31;;;;;;;4.22;3.58;;;;;14.50;101160.00;;;;5086598;28;20596;-83
2022/02/03 13:44:05;;;;;;;4.88;3.15;;;;;14.40;101162.00;;;;5086440;28;20206;-83
2022/02/03 13:46:34;;;;;;;5.40;3.70;;;;;14.50;101156.00;;;;5088046;28;20218;-83
2022/02/03 13:49:02;;;;;;;4.78;3.50;;;;;14.50;101149.00;;;;5086707;28;20197;-83
2022/02/03 13:51:31;;;;;;;5.03;3.75;;;;;14.50;101140.00;;;;5095871;28;20206;-84
2022/02/03 13:54:07;;;;;;;4.72;3.92;;;;;14.50;101141.00;;;;5087805;28;20309;-84
2022/02/03 14:11:29;;;;;;;3.67;3.10;;;;;14.50;101122.00;;;;5085236;28;20232;-81
2022/02/03 14:14:14;;;;;;;6.47;4.00;;;;;14.50;101123.00;;;;5079707;28;20229;-81
2022/02/03 14:22:05;;;;;;;4.90;3.58;;;;;14.50;101124.00;;;;5085749;28;20194;-81
2022/02/03 14:27:24;;;;;;;4.60;3.75;;;;;14.50;101103.00;;;;5012406;28;20217;-79
2022/02/03 14:29:55;;;;;;;5.15;3.40;;;;;14.50;101095.00;;;;5071026;28;20198;-79
2022/02/03 14:32:30;;;;;;;6.07;4.30;;;;;14.40;101095.00;;;;5086770;28;20273;-79
2022/02/03 14:34:58;;;;;;;5.95;3.75;;;;;14.40;101093.00;;;;5084068;28;20194;-80
2022/02/03 14:37:41;;;;;;;5.20;3.88;;;;;14.40;101088.00;;;;5072853;28;20195;-80
2022/02/03 14:40:31;;;;;;;4.88;3.42;;;;;14.40;101091.00;;;;5071451;28;20186;-79
2022/02/03 14:42:59;;;;;;;4.03;2.85;;;;;14.40;101090.00;;;;5085547;28;20190;-79
2022/02/03 14:45:26;;;;;;;6.22;3.50;;;;;14.40;101079.00;;;;5087656;28;20186;-79
2022/02/03 14:47:55;;;;;;;5.28;3.30;;;;;14.40;101082.00;;;;5085960;28;20209;-79
2022/02/03 14:50:23;;;;;;;4.38;3.42;;;;;14.40;101079.00;;;;5086266;28;20191;-79
2022/02/03 14:53:02;;;;;;;5.60;3.88;;;;;14.40;101076.00;;;;5066626;28;20260;-78
2022/02/03 14:58:21;;;;;;;5.70;4.65;;;;;14.40;101074.00;;;;5087786;28;20267;-80
2022/02/03 15:00:50;;;;;;;6.30;4.32;;;;;14.30;101069.00;;;;5089580;28;20747;-81
2022/02/03 15:03:20;;;;;;;5.30;4.10;;;;;14.30;101068.00;;;;5089535;28;20212;-82
2022/02/03 15:05:47;;;;;;;7.20;4.05;;;;;14.30;101069.00;;;;5089150;28;20210;-80
2022/02/03 15:08:20;;;;;;;5.50;3.60;;;;;14.30;101069.00;;;;5088901;28;20213;-81
2022/02/03 15:11:02;;;;;;;6.90;3.95;;;;;14.30;101069.00;;;;5090545;28;20198;-80
2022/02/03 15:13:41;;;;;;;5.32;3.92;;;;;14.30;101067.00;;;;5090166;28;20194;-80
2022/02/03 15:16:09;;;;;;;4.05;3.40;;;;;14.30;101064.00;;;;5098707;28;20196;-80
2022/02/03 15:18:38;;;;;;;6.28;4.13;;;;;14.30;101059.00;;;;5098240;28;20263;-80
2022/02/03 15:21:06;;;;;;;7.10;4.50;;;;;14.30;101047.00;;;;5089152;28;20301;-79
2022/02/03 15:23:34;;;;;;;6.53;4.28;;;;;14.30;101052.00;;;;5089628;28;20768;-79
2022/02/03 15:26:01;;;;;;;6.38;3.55;;;;;14.30;101049.00;;;;5089179;28;20198;-79
2022/02/03 15:28:29;;;;;;;5.68;3.97;;;;;14.30;101047.00;;;;5089243;28;20215;-79
2022/02/03 15:30:56;;;;;;;5.95;3.80;;;;;14.30;101043.00;;;;5094487;28;20301;-78
2022/02/03 15:33:27;;;;;;;5.22;3.42;;;;;14.30;101047.00;;;;5088052;28;20198;-78
2022/02/03 15:35:59;;;;;;;6.35;3.95;;;;;14.30;101048.00;;;;5089384;28;20205;-79
2022/02/03 15:38:31;;;;;;;5.38;3.45;;;;;14.30;101043.00;;;;5089728;28;20226;-79
2022/02/03 15:41:02;;;;;;;5.35;3.78;;;;;14.30;101042.00;;;;5088540;28;20280;-79
2022/02/03 15:43:37;;;;;;;4.15;3.20;;;;;14.30;101050.00;;;;5088874;28;20652;-79
2022/02/03 15:46:05;;;;;;;6.32;3.38;;;;;14.30;101058.00;;;;5089617;28;20728;-79
2022/02/03 15:48:39;;;;;;;4.55;3.63;;;;;14.30;101050.00;;;;5088880;28;20194;-79
2022/02/03 15:56:14;;;;;;;7.53;4.70;;;;;14.30;101041.00;;;;5090678;28;20193;-80
2022/02/03 15:57:04;;;;;;;7.45;3.80;;;;;14.30;101052.00;;;;5087181;28;20251;-80
2022/02/03 16:02:44;;;;;;;4.78;3.85;;;;;14.30;101043.00;;;;5077631;28;20210;-79
2022/02/03 16:19:34;;;;;;;6.03;3.60;;;;;14.30;101037.00;;;;5074238;28;20580;-81
2022/02/03 16:22:07;;;;;;;5.22;3.70;;;;;14.30;101035.00;;;;5052419;28;20521;-81
2022/02/03 16:24:46;;;;;;;5.72;3.47;;;;;14.30;101038.00;;;;5050425;28;20199;-82
2022/02/03 16:41:42;;;;;;;4.93;3.67;;;;;14.20;101047.00;;;;5041358;28;20651;-81
2022/02/03 16:55:00;;;;;;;3.90;3.40;;;;;14.20;101039.00;;;;5036253;28;20293;-82
2022/02/03 16:57:28;;;;;;;4.95;4.00;;;;;14.20;101035.00;;;;5043315;28;20224;-83
2022/02/03 16:59:59;;;;;;;4.40;3.28;;;;;14.20;101033.00;;;;5044083;28;20204;-83
2022/02/03 17:02:26;;;;;;;4.43;3.97;;;;;14.20;101031.00;;;;5047387;28;20314;-82
2022/02/03 17:04:56;;;;;;;4.90;3.35;;;;;14.20;101040.00;;;;5045467;28;20203;-82
2022/02/03 17:07:25;;;;;;;5.00;3.70;;;;;14.20;101044.00;;;;5045251;28;20242;-83
2022/02/03 17:09:53;;;;;;;7.90;3.92;;;;;14.20;101044.00;;;;5040070;28;20200;-82
2022/02/03 17:12:20;;;;;;;6.03;3.83;;;;;14.10;101042.00;;;;5044718;28;20209;-84
2022/02/03 17:14:47;;;;;;;5.40;3.50;;;;;14.20;101047.00;;;;5041643;28;20203;-82
2022/02/03 17:17:19;;;;;;;6.03;3.75;;;;;14.20;101040.00;;;;5041609;28;20192;-81
2022/02/03 17:19:46;;;;;;;4.40;3.55;;;;;14.20;101043.00;;;;5033316;28;20199;-82
2022/02/03 17:22:15;;;;;;;4.47;3.33;;;;;14.20;101038.00;;;;5031536;28;20502;-83
2022/02/03 17:24:50;;;;;;;5.63;4.25;;;;;14.10;101038.00;;;;5033691;28;20200;-82
2022/02/03 17:27:25;;;;;;;4.57;3.53;;;;;14.10;101048.00;;;;5035150;28;20670;-82
2022/02/03 17:30:01;;;;;;;6.80;4.13;;;;;14.10;101041.00;;;;5033684;28;20196;-82
2022/02/03 17:55:19;;;;;;;5.15;3.88;;;;;14.10;101055.00;;;;5030580;28;20204;-85
2022/02/03 18:03:28;;;;;;;5.10;4.13;;;;;14.10;101042.00;;;;5020100;28;20238;-82
2022/02/03 18:08:46;;;;;;;6.10;4.70;;;;;14.10;101042.00;;;;5029616;28;20286;-83
2022/02/03 18:11:29;;;;;;;6.03;4.63;;;;;14.10;101044.00;;;;5026943;28;20289;-85
2022/02/03 18:19:50;;;;;;;6.38;5.07;;;;;14.10;101049.00;;;;5023357;28;20621;-84
2022/02/03 18:30:46;;;;;;;7.07;5.15;;;;;14.10;101048.00;;;;5011714;28;20215;-84
2022/02/03 18:36:15;;;;;;;7.05;5.18;;;;;14.20;101044.00;;;;5024764;28;20258;-83
2022/02/03 18:53:04;;;;;;;7.35;5.25;;;;;14.10;101061.00;;;;4966412;28;20253;-83
2022/02/03 18:55:37;;;;;;;7.20;5.50;;;;;14.20;101061.00;;;;4960080;28;20191;-85
2022/02/03 18:58:13;;;;;;;10.20;6.68;;;;;14.10;101052.00;;;;4996787;28;20226;-85
2022/02/03 19:14:49;;;;;;;7.32;6.20;;;;;14.10;101046.00;;;;5019778;28;20689;-84
2022/02/03 20:01:43;;;;;;;7.18;5.63;;;;;14.10;101029.00;;;;5020384;28;20633;-83
2022/02/03 20:07:08;;;;;;;9.45;6.60;;;;;14.20;101036.00;;;;5003676;28;20287;-83
2022/02/03 20:09:56;;;;;;;8.65;6.70;;;;;14.10;101041.00;;;;5024853;28;20228;-83
2022/02/03 20:12:23;;;;;;;11.32;6.38;;;;;14.20;101041.00;;;;5022203;28;20215;-83
2022/02/03 20:14:51;;;;;;;9.18;6.70;;;;;14.20;101043.00;;;;5020234;28;20204;-83
2022/02/03 20:17:19;;;;;;;9.25;6.80;;;;;14.20;101032.00;;;;5023233;28;20659;-83